sensor_id;sensor_type;location;lat;lon;timestamp;noise_LAeq;noise_LA_min;noise_LA_max;noise_LA01;noise_LA95
66454;Laerm;56832;52.514;4.662;2022-11-15T00:00:08;31.33;29.54;35.70;;
66454;Laerm;56832;52.514;4.662;2022-11-15T00:00:18;31.16;29.35;34.12;;
66454;Laerm;56832;52.514;4.662;2022-11-15T00:00:28;30.95;29.47;32.52;;
66454;Laerm;56832;52.514;4.662;2022-11-15T00:00:39;31.29;29.19;32.87;;
66454;Laerm;56832;52.514;4.662;2022-11-15T00:00:49;31.38;29.59;32.98;;
66454;Laerm;56832;52.514;4.662;2022-11-15T00:00:59;31.08;29.62;32.97;;
66454;Laerm;56832;52.514;4.662;2022-11-15T00:01:14;31.08;29.50;33.62;;
66454;Laerm;56832;52.514;4.662;2022-11-15T00:01:24;31.50;29.45;35.35;;
66454;Laerm;56832;52.514;4.662;2022-11-15T00:01:34;31.61;29.81;33.33;;
66454;Laerm;56832;52.514;4.662;2022-11-15T00:01:46;31.12;29.36;33.32;;
66454;Laerm;56832;52.514;4.662;2022-11-15T00:01:57;32.00;29.32;35.14;;
66454;Laerm;56832;52.514;4.662;2022-11-15T00:02:07;31.47;29.81;33.78;;
66454;Laerm;56832;52.514;4.662;2022-11-15T00:02:17;31.32;29.75;32.92;;
66454;Laerm;56832;52.514;4.662;2022-11-15T00:02:27;31.85;30.28;34.20;;
66454;Laerm;56832;52.514;4.662;2022-11-15T00:02:37;32.15;29.87;35.20;;
66454;Laerm;56832;52.514;4.662;2022-11-15T00:02:48;33.78;31.04;40.32;;
66454;Laerm;56832;52.514;4.662;2022-11-15T00:02:58;37.92;31.85;41.85;;
66454;Laerm;56832;52.514;4.662;2022-11-15T00:03:08;60.48;39.86;67.60;;
66454;Laerm;56832;52.514;4.662;2022-11-15T00:03:19;43.91;33.04;54.19;;
66454;Laerm;56832;52.514;4.662;2022-11-15T00:03:30;38.96;32.38;45.60;;
66454;Laerm;56832;52.514;4.662;2022-11-15T00:03:40;35.92;32.20;39.69;;
66454;Laerm;56832;52.514;4.662;2022-11-15T00:03:50;36.75;34.30;39.37;;
66454;Laerm;56832;52.514;4.662;2022-11-15T00:04:01;34.87;31.22;38.99;;
66454;Laerm;56832;52.514;4.662;2022-11-15T00:04:11;32.36;30.72;34.43;;
66454;Laerm;56832;52.514;4.662;2022-11-15T00:04:21;32.16;30.50;33.94;;
66454;Laerm;56832;52.514;4.662;2022-11-15T00:04:31;31.75;29.92;33.29;;
66454;Laerm;56832;52.514;4.662;2022-11-15T00:04:42;32.13;30.22;34.11;;
66454;Laerm;56832;52.514;4.662;2022-11-15T00:04:52;32.24;30.06;35.33;;
66454;Laerm;56832;52.514;4.662;2022-11-15T00:05:02;36.48;30.36;52.18;;
66454;Laerm;56832;52.514;4.662;2022-11-15T00:05:12;38.76;29.81;47.89;;
66454;Laerm;56832;52.514;4.662;2022-11-15T00:05:23;58.54;38.66;66.39;;
66454;Laerm;56832;52.514;4.662;2022-11-15T00:05:36;37.67;33.89;41.96;;
66454;Laerm;56832;52.514;4.662;2022-11-15T00:05:46;33.27;30.44;36.66;;
66454;Laerm;56832;52.514;4.662;2022-11-15T00:06:00;31.25;29.81;32.76;;
66454;Laerm;56832;52.514;4.662;2022-11-15T00:06:11;31.14;29.17;33.02;;
66454;Laerm;56832;52.514;4.662;2022-11-15T00:06:21;31.62;29.71;33.81;;
66454;Laerm;56832;52.514;4.662;2022-11-15T00:06:32;33.30;30.87;35.90;;
66454;Laerm;56832;52.514;4.662;2022-11-15T00:06:42;36.16;31.85;44.79;;
66454;Laerm;56832;52.514;4.662;2022-11-15T00:06:52;33.11;30.43;36.00;;
66454;Laerm;56832;52.514;4.662;2022-11-15T00:07:02;32.34;30.31;36.07;;
66454;Laerm;56832;52.514;4.662;2022-11-15T00:07:13;33.92;31.43;35.93;;
66454;Laerm;56832;52.514;4.662;2022-11-15T00:07:23;32.81;31.00;34.88;;
66454;Laerm;56832;52.514;4.662;2022-11-15T00:07:33;33.00;31.21;38.20;;
66454;Laerm;56832;52.514;4.662;2022-11-15T00:07:43;32.21;30.55;34.53;;
66454;Laerm;56832;52.514;4.662;2022-11-15T00:07:54;32.77;30.98;35.13;;
66454;Laerm;56832;52.514;4.662;2022-11-15T00:08:04;31.83;30.13;34.35;;
66454;Laerm;56832;52.514;4.662;2022-11-15T00:08:14;32.32;30.22;35.72;;
66454;Laerm;56832;52.514;4.662;2022-11-15T00:08:24;31.54;30.07;33.34;;
66454;Laerm;56832;52.514;4.662;2022-11-15T00:08:34;31.79;30.02;34.31;;
66454;Laerm;56832;52.514;4.662;2022-11-15T00:08:45;33.17;31.21;36.22;;
66454;Laerm;56832;52.514;4.662;2022-11-15T00:08:57;32.39;30.02;34.95;;
66454;Laerm;56832;52.514;4.662;2022-11-15T00:09:07;32.01;29.92;34.73;;
66454;Laerm;56832;52.514;4.662;2022-11-15T00:09:18;36.71;31.65;40.90;;
66454;Laerm;56832;52.514;4.662;2022-11-15T00:09:28;57.46;38.87;63.86;;
66454;Laerm;56832;52.514;4.662;2022-11-15T00:09:38;49.67;37.20;59.62;;
66454;Laerm;56832;52.514;4.662;2022-11-15T00:09:48;35.69;32.35;43.19;;
66454;Laerm;56832;52.514;4.662;2022-11-15T00:09:58;34.39;31.77;37.42;;
66454;Laerm;56832;52.514;4.662;2022-11-15T00:10:08;31.75;29.86;33.37;;
66454;Laerm;56832;52.514;4.662;2022-11-15T00:10:19;32.28;30.14;34.03;;
66454;Laerm;56832;52.514;4.662;2022-11-15T00:10:29;32.16;29.83;33.90;;
66454;Laerm;56832;52.514;4.662;2022-11-15T00:10:39;31.68;29.37;33.93;;
66454;Laerm;56832;52.514;4.662;2022-11-15T00:10:56;31.94;29.92;34.08;;
66454;Laerm;56832;52.514;4.662;2022-11-15T00:11:08;31.39;29.85;33.16;;
66454;Laerm;56832;52.514;4.662;2022-11-15T00:11:19;31.18;29.33;33.13;;
66454;Laerm;56832;52.514;4.662;2022-11-15T00:11:30;31.41;29.92;33.68;;
66454;Laerm;56832;52.514;4.662;2022-11-15T00:11:40;31.12;29.68;32.65;;
66454;Laerm;56832;52.514;4.662;2022-11-15T00:11:51;31.79;30.18;34.04;;
66454;Laerm;56832;52.514;4.662;2022-11-15T00:12:01;32.47;30.01;35.07;;
66454;Laerm;56832;52.514;4.662;2022-11-15T00:12:11;33.96;31.26;37.77;;
66454;Laerm;56832;52.514;4.662;2022-11-15T00:12:21;31.46;29.76;34.43;;
66454;Laerm;56832;52.514;4.662;2022-11-15T00:12:32;31.38;29.73;32.87;;
66454;Laerm;56832;52.514;4.662;2022-11-15T00:12:42;31.13;29.68;32.65;;
66454;Laerm;56832;52.514;4.662;2022-11-15T00:12:52;31.56;29.47;33.98;;
66454;Laerm;56832;52.514;4.662;2022-11-15T00:13:09;30.99;29.56;32.77;;
66454;Laerm;56832;52.514;4.662;2022-11-15T00:13:20;30.94;29.31;32.96;;
66454;Laerm;56832;52.514;4.662;2022-11-15T00:13:30;30.98;29.38;33.69;;
66454;Laerm;56832;52.514;4.662;2022-11-15T00:13:40;31.05;28.91;32.76;;
66454;Laerm;56832;52.514;4.662;2022-11-15T00:13:50;31.36;29.61;34.66;;
66454;Laerm;56832;52.514;4.662;2022-11-15T00:14:01;31.30;29.57;33.85;;
66454;Laerm;56832;52.514;4.662;2022-11-15T00:14:14;30.76;29.17;32.34;;
66454;Laerm;56832;52.514;4.662;2022-11-15T00:14:24;31.02;29.59;32.60;;
66454;Laerm;56832;52.514;4.662;2022-11-15T00:14:34;31.13;29.28;32.94;;
66454;Laerm;56832;52.514;4.662;2022-11-15T00:14:44;31.35;28.86;37.79;;
66454;Laerm;56832;52.514;4.662;2022-11-15T00:14:54;31.71;29.91;34.86;;
66454;Laerm;56832;52.514;4.662;2022-11-15T00:15:05;30.96;29.09;32.66;;
66454;Laerm;56832;52.514;4.662;2022-11-15T00:15:15;31.98;29.87;40.68;;
66454;Laerm;56832;52.514;4.662;2022-11-15T00:15:25;31.69;29.35;36.82;;
66454;Laerm;56832;52.514;4.662;2022-11-15T00:15:36;30.60;29.27;32.23;;
66454;Laerm;56832;52.514;4.662;2022-11-15T00:15:47;31.11;29.09;37.04;;
66454;Laerm;56832;52.514;4.662;2022-11-15T00:15:57;30.35;28.40;32.46;;
66454;Laerm;56832;52.514;4.662;2022-11-15T00:16:08;30.25;28.93;31.71;;
66454;Laerm;56832;52.514;4.662;2022-11-15T00:16:19;31.34;29.14;35.69;;
66454;Laerm;56832;52.514;4.662;2022-11-15T00:16:29;31.05;29.66;33.66;;
66454;Laerm;56832;52.514;4.662;2022-11-15T00:16:39;31.12;29.28;32.67;;
66454;Laerm;56832;52.514;4.662;2022-11-15T00:16:49;31.14;29.35;35.71;;
66454;Laerm;56832;52.514;4.662;2022-11-15T00:16:59;31.02;29.47;36.68;;
66454;Laerm;56832;52.514;4.662;2022-11-15T00:17:10;30.87;29.18;32.23;;
66454;Laerm;56832;52.514;4.662;2022-11-15T00:17:20;31.51;29.05;36.04;;
66454;Laerm;56832;52.514;4.662;2022-11-15T00:17:30;30.98;28.87;32.87;;
66454;Laerm;56832;52.514;4.662;2022-11-15T00:17:41;31.25;29.28;32.99;;
66454;Laerm;56832;52.514;4.662;2022-11-15T00:17:51;31.27;29.63;32.85;;
66454;Laerm;56832;52.514;4.662;2022-11-15T00:18:02;31.29;29.29;36.12;;
66454;Laerm;56832;52.514;4.662;2022-11-15T00:18:12;30.40;29.00;31.84;;
66454;Laerm;56832;52.514;4.662;2022-11-15T00:18:23;30.35;28.77;31.58;;
66454;Laerm;56832;52.514;4.662;2022-11-15T00:18:33;31.01;29.09;35.43;;
66454;Laerm;56832;52.514;4.662;2022-11-15T00:18:44;30.37;28.86;31.84;;
66454;Laerm;56832;52.514;4.662;2022-11-15T00:18:54;30.24;29.05;32.44;;
66454;Laerm;56832;52.514;4.662;2022-11-15T00:19:04;30.97;28.78;37.20;;
66454;Laerm;56832;52.514;4.662;2022-11-15T00:19:14;30.45;28.97;32.97;;
66454;Laerm;56832;52.514;4.662;2022-11-15T00:19:24;30.69;29.06;35.37;;
66454;Laerm;56832;52.514;4.662;2022-11-15T00:19:35;31.19;29.10;36.34;;
66454;Laerm;56832;52.514;4.662;2022-11-15T00:19:45;31.43;29.92;33.16;;
66454;Laerm;56832;52.514;4.662;2022-11-15T00:19:55;31.02;29.54;32.98;;
66454;Laerm;56832;52.514;4.662;2022-11-15T00:20:05;30.99;28.79;34.56;;
66454;Laerm;56832;52.514;4.662;2022-11-15T00:20:18;30.19;28.87;31.72;;
66454;Laerm;56832;52.514;4.662;2022-11-15T00:20:29;30.29;28.80;31.60;;
66454;Laerm;56832;52.514;4.662;2022-11-15T00:20:39;30.80;29.11;36.46;;
66454;Laerm;56832;52.514;4.662;2022-11-15T00:20:50;30.96;28.82;35.87;;
66454;Laerm;56832;52.514;4.662;2022-11-15T00:21:04;30.21;29.09;31.74;;
66454;Laerm;56832;52.514;4.662;2022-11-15T00:21:15;31.24;29.09;45.25;;
66454;Laerm;56832;52.514;4.662;2022-11-15T00:21:25;30.44;29.12;32.29;;
66454;Laerm;56832;52.514;4.662;2022-11-15T00:21:35;30.24;28.85;31.49;;
66454;Laerm;56832;52.514;4.662;2022-11-15T00:21:45;30.70;28.95;36.40;;
66454;Laerm;56832;52.514;4.662;2022-11-15T00:21:56;31.29;29.30;36.88;;
66454;Laerm;56832;52.514;4.662;2022-11-15T00:22:06;31.07;29.62;32.72;;
66454;Laerm;56832;52.514;4.662;2022-11-15T00:22:16;30.83;29.00;32.56;;
66454;Laerm;56832;52.514;4.662;2022-11-15T00:22:31;31.54;29.30;36.31;;
66454;Laerm;56832;52.514;4.662;2022-11-15T00:22:41;30.39;28.89;32.38;;
66454;Laerm;56832;52.514;4.662;2022-11-15T00:22:52;30.30;29.12;31.84;;
66454;Laerm;56832;52.514;4.662;2022-11-15T00:23:05;30.54;29.18;32.00;;
66454;Laerm;56832;52.514;4.662;2022-11-15T00:23:15;30.79;29.03;36.82;;
66454;Laerm;56832;52.514;4.662;2022-11-15T00:23:26;30.68;28.84;32.65;;
66454;Laerm;56832;52.514;4.662;2022-11-15T00:23:36;30.66;29.01;32.91;;
66454;Laerm;56832;52.514;4.662;2022-11-15T00:23:47;31.70;30.00;35.40;;
66454;Laerm;56832;52.514;4.662;2022-11-15T00:23:58;31.30;29.43;33.83;;
66454;Laerm;56832;52.514;4.662;2022-11-15T00:24:08;34.41;29.99;42.16;;
66454;Laerm;56832;52.514;4.662;2022-11-15T00:24:18;31.78;29.53;36.08;;
66454;Laerm;56832;52.514;4.662;2022-11-15T00:24:28;31.98;29.64;45.52;;
66454;Laerm;56832;52.514;4.662;2022-11-15T00:24:38;31.98;29.74;36.50;;
66454;Laerm;56832;52.514;4.662;2022-11-15T00:24:49;30.89;29.29;34.67;;
66454;Laerm;56832;52.514;4.662;2022-11-15T00:24:59;31.82;29.97;37.49;;
66454;Laerm;56832;52.514;4.662;2022-11-15T00:25:09;31.45;29.51;34.02;;
66454;Laerm;56832;52.514;4.662;2022-11-15T00:25:19;31.14;29.02;33.24;;
66454;Laerm;56832;52.514;4.662;2022-11-15T00:25:30;30.99;29.54;35.05;;
66454;Laerm;56832;52.514;4.662;2022-11-15T00:25:40;31.15;29.66;33.18;;
66454;Laerm;56832;52.514;4.662;2022-11-15T00:25:57;30.22;28.45;31.95;;
66454;Laerm;56832;52.514;4.662;2022-11-15T00:26:10;31.40;29.15;38.78;;
66454;Laerm;56832;52.514;4.662;2022-11-15T00:26:21;31.84;29.72;35.71;;
66454;Laerm;56832;52.514;4.662;2022-11-15T00:26:31;31.53;29.86;36.95;;
66454;Laerm;56832;52.514;4.662;2022-11-15T00:26:41;31.28;29.68;37.10;;
66454;Laerm;56832;52.514;4.662;2022-11-15T00:26:52;32.10;29.64;38.53;;
66454;Laerm;56832;52.514;4.662;2022-11-15T00:27:02;31.12;29.52;34.18;;
66454;Laerm;56832;52.514;4.662;2022-11-15T00:27:12;31.13;29.64;33.88;;
66454;Laerm;56832;52.514;4.662;2022-11-15T00:27:22;31.63;29.76;39.49;;
66454;Laerm;56832;52.514;4.662;2022-11-15T00:27:33;32.29;30.26;38.84;;
66454;Laerm;56832;52.514;4.662;2022-11-15T00:27:43;31.22;29.48;33.31;;
66454;Laerm;56832;52.514;4.662;2022-11-15T00:27:57;32.19;29.80;37.17;;
66454;Laerm;56832;52.514;4.662;2022-11-15T00:28:07;31.41;29.58;33.32;;
66454;Laerm;56832;52.514;4.662;2022-11-15T00:28:18;32.03;30.36;34.65;;
66454;Laerm;56832;52.514;4.662;2022-11-15T00:28:28;33.07;30.17;40.41;;
66454;Laerm;56832;52.514;4.662;2022-11-15T00:28:38;32.57;30.06;37.00;;
66454;Laerm;56832;52.514;4.662;2022-11-15T00:28:48;31.93;30.55;33.96;;
66454;Laerm;56832;52.514;4.662;2022-11-15T00:29:01;32.10;30.35;34.58;;
66454;Laerm;56832;52.514;4.662;2022-11-15T00:29:11;31.82;30.06;34.08;;
66454;Laerm;56832;52.514;4.662;2022-11-15T00:29:21;31.86;30.11;33.85;;
66454;Laerm;56832;52.514;4.662;2022-11-15T00:29:32;32.34;30.07;34.93;;
66454;Laerm;56832;52.514;4.662;2022-11-15T00:29:43;35.48;31.79;39.53;;
66454;Laerm;56832;52.514;4.662;2022-11-15T00:29:53;49.08;37.87;56.16;;
66454;Laerm;56832;52.514;4.662;2022-11-15T00:30:03;53.87;39.96;60.02;;
66454;Laerm;56832;52.514;4.662;2022-11-15T00:30:14;35.26;30.91;41.51;;
66454;Laerm;56832;52.514;4.662;2022-11-15T00:30:24;38.74;32.38;44.59;;
66454;Laerm;56832;52.514;4.662;2022-11-15T00:30:34;36.06;32.58;39.84;;
66454;Laerm;56832;52.514;4.662;2022-11-15T00:30:44;31.87;30.19;34.66;;
66454;Laerm;56832;52.514;4.662;2022-11-15T00:31:01;31.30;29.43;33.20;;
66454;Laerm;56832;52.514;4.662;2022-11-15T00:31:12;31.51;29.25;33.96;;
66454;Laerm;56832;52.514;4.662;2022-11-15T00:31:23;31.69;29.98;35.51;;
66454;Laerm;56832;52.514;4.662;2022-11-15T00:31:33;31.51;29.42;33.41;;
66454;Laerm;56832;52.514;4.662;2022-11-15T00:31:43;32.06;29.99;37.11;;
66454;Laerm;56832;52.514;4.662;2022-11-15T00:31:53;32.30;30.21;34.68;;
66454;Laerm;56832;52.514;4.662;2022-11-15T00:32:04;32.09;29.66;35.30;;
66454;Laerm;56832;52.514;4.662;2022-11-15T00:32:14;31.75;29.52;44.85;;
66454;Laerm;56832;52.514;4.662;2022-11-15T00:32:24;31.94;29.15;43.48;;
66454;Laerm;56832;52.514;4.662;2022-11-15T00:32:34;31.37;29.26;37.64;;
66454;Laerm;56832;52.514;4.662;2022-11-15T00:32:45;31.40;29.27;38.60;;
66454;Laerm;56832;52.514;4.662;2022-11-15T00:32:55;30.80;29.50;32.86;;
66454;Laerm;56832;52.514;4.662;2022-11-15T00:33:05;32.28;29.74;36.98;;
66454;Laerm;56832;52.514;4.662;2022-11-15T00:33:16;32.24;29.79;37.78;;
66454;Laerm;56832;52.514;4.662;2022-11-15T00:33:26;32.59;30.01;39.25;;
66454;Laerm;56832;52.514;4.662;2022-11-15T00:33:36;32.99;30.47;37.91;;
66454;Laerm;56832;52.514;4.662;2022-11-15T00:33:47;33.22;29.81;39.19;;
66454;Laerm;56832;52.514;4.662;2022-11-15T00:33:57;32.49;30.13;38.13;;
66454;Laerm;56832;52.514;4.662;2022-11-15T00:34:08;33.56;29.52;42.84;;
66454;Laerm;56832;52.514;4.662;2022-11-15T00:34:18;34.83;29.35;44.56;;
66454;Laerm;56832;52.514;4.662;2022-11-15T00:34:29;35.76;29.40;43.98;;
66454;Laerm;56832;52.514;4.662;2022-11-15T00:34:39;31.41;28.69;38.60;;
66454;Laerm;56832;52.514;4.662;2022-11-15T00:34:49;32.06;29.10;38.59;;
66454;Laerm;56832;52.514;4.662;2022-11-15T00:34:59;34.33;29.14;41.17;;
66454;Laerm;56832;52.514;4.662;2022-11-15T00:35:09;31.03;28.94;35.68;;
66454;Laerm;56832;52.514;4.662;2022-11-15T00:35:20;33.17;29.21;39.83;;
66454;Laerm;56832;52.514;4.662;2022-11-15T00:35:31;32.39;29.82;43.55;;
66454;Laerm;56832;52.514;4.662;2022-11-15T00:35:41;35.94;31.26;39.42;;
66454;Laerm;56832;52.514;4.662;2022-11-15T00:35:51;38.87;32.76;47.59;;
66454;Laerm;56832;52.514;4.662;2022-11-15T00:36:02;61.34;38.74;68.43;;
66454;Laerm;56832;52.514;4.662;2022-11-15T00:36:14;35.59;31.12;43.27;;
66454;Laerm;56832;52.514;4.662;2022-11-15T00:36:24;31.21;29.83;33.29;;
66454;Laerm;56832;52.514;4.662;2022-11-15T00:36:34;31.92;29.63;42.23;;
66454;Laerm;56832;52.514;4.662;2022-11-15T00:36:45;33.47;29.64;40.35;;
66454;Laerm;56832;52.514;4.662;2022-11-15T00:36:55;32.58;29.75;42.08;;
66454;Laerm;56832;52.514;4.662;2022-11-15T00:37:05;30.84;29.39;32.18;;
66454;Laerm;56832;52.514;4.662;2022-11-15T00:37:16;32.64;29.57;40.23;;
66454;Laerm;56832;52.514;4.662;2022-11-15T00:37:26;34.78;29.93;45.62;;
66454;Laerm;56832;52.514;4.662;2022-11-15T00:37:36;32.00;29.65;42.44;;
66454;Laerm;56832;52.514;4.662;2022-11-15T00:37:46;33.24;29.87;38.95;;
66454;Laerm;56832;52.514;4.662;2022-11-15T00:37:57;31.70;29.54;38.05;;
66454;Laerm;56832;52.514;4.662;2022-11-15T00:38:07;34.38;29.97;45.78;;
66454;Laerm;56832;52.514;4.662;2022-11-15T00:38:17;33.62;29.17;45.58;;
66454;Laerm;56832;52.514;4.662;2022-11-15T00:38:33;33.16;29.48;39.39;;
66454;Laerm;56832;52.514;4.662;2022-11-15T00:38:44;31.73;29.48;34.88;;
66454;Laerm;56832;52.514;4.662;2022-11-15T00:38:54;32.51;29.80;40.84;;
66454;Laerm;56832;52.514;4.662;2022-11-15T00:39:04;32.66;30.00;39.90;;
66454;Laerm;56832;52.514;4.662;2022-11-15T00:39:15;32.06;29.56;35.41;;
66454;Laerm;56832;52.514;4.662;2022-11-15T00:39:25;32.29;29.79;40.52;;
66454;Laerm;56832;52.514;4.662;2022-11-15T00:39:36;32.73;29.66;40.97;;
66454;Laerm;56832;52.514;4.662;2022-11-15T00:39:46;31.23;29.49;32.99;;
66454;Laerm;56832;52.514;4.662;2022-11-15T00:39:56;33.76;29.79;40.94;;
66454;Laerm;56832;52.514;4.662;2022-11-15T00:40:07;34.22;30.17;39.86;;
66454;Laerm;56832;52.514;4.662;2022-11-15T00:40:17;31.33;30.05;32.94;;
66454;Laerm;56832;52.514;4.662;2022-11-15T00:40:28;33.60;29.96;40.80;;
66454;Laerm;56832;52.514;4.662;2022-11-15T00:40:38;35.01;32.14;40.75;;
66454;Laerm;56832;52.514;4.662;2022-11-15T00:40:48;33.77;31.83;36.01;;
66454;Laerm;56832;52.514;4.662;2022-11-15T00:40:59;38.12;31.41;44.93;;
66454;Laerm;56832;52.514;4.662;2022-11-15T00:41:09;47.26;36.13;59.07;;
66454;Laerm;56832;52.514;4.662;2022-11-15T00:41:19;33.29;30.44;38.11;;
66454;Laerm;56832;52.514;4.662;2022-11-15T00:41:29;31.90;30.22;33.46;;
66454;Laerm;56832;52.514;4.662;2022-11-15T00:41:40;34.07;29.78;41.51;;
66454;Laerm;56832;52.514;4.662;2022-11-15T00:41:50;31.97;30.27;33.97;;
66454;Laerm;56832;52.514;4.662;2022-11-15T00:42:00;32.32;30.71;36.28;;
66454;Laerm;56832;52.514;4.662;2022-11-15T00:42:10;33.36;30.42;41.43;;
66454;Laerm;56832;52.514;4.662;2022-11-15T00:42:21;33.39;30.41;41.46;;
66454;Laerm;56832;52.514;4.662;2022-11-15T00:42:31;31.66;29.84;33.45;;
66454;Laerm;56832;52.514;4.662;2022-11-15T00:42:41;40.19;31.76;50.32;;
66454;Laerm;56832;52.514;4.662;2022-11-15T00:42:51;39.07;31.84;45.05;;
66454;Laerm;56832;52.514;4.662;2022-11-15T00:43:01;32.77;30.59;35.61;;
66454;Laerm;56832;52.514;4.662;2022-11-15T00:43:12;34.56;31.42;37.07;;
66454;Laerm;56832;52.514;4.662;2022-11-15T00:43:22;34.51;31.10;42.16;;
66454;Laerm;56832;52.514;4.662;2022-11-15T00:43:32;32.60;30.71;34.24;;
66454;Laerm;56832;52.514;4.662;2022-11-15T00:43:42;33.58;31.52;37.62;;
66454;Laerm;56832;52.514;4.662;2022-11-15T00:43:53;35.50;31.17;41.23;;
66454;Laerm;56832;52.514;4.662;2022-11-15T00:44:03;32.88;30.88;35.16;;
66454;Laerm;56832;52.514;4.662;2022-11-15T00:44:14;32.58;30.54;35.01;;
66454;Laerm;56832;52.514;4.662;2022-11-15T00:44:24;33.03;30.60;35.28;;
66454;Laerm;56832;52.514;4.662;2022-11-15T00:44:34;34.15;30.09;40.90;;
66454;Laerm;56832;52.514;4.662;2022-11-15T00:44:44;34.24;31.01;39.48;;
66454;Laerm;56832;52.514;4.662;2022-11-15T00:44:54;34.49;31.11;45.18;;
66454;Laerm;56832;52.514;4.662;2022-11-15T00:45:05;33.51;31.08;40.80;;
66454;Laerm;56832;52.514;4.662;2022-11-15T00:45:15;33.45;30.86;41.71;;
66454;Laerm;56832;52.514;4.662;2022-11-15T00:45:25;33.49;31.44;38.91;;
66454;Laerm;56832;52.514;4.662;2022-11-15T00:45:35;31.83;30.08;34.30;;
66454;Laerm;56832;52.514;4.662;2022-11-15T00:45:46;31.99;30.50;34.30;;
66454;Laerm;56832;52.514;4.662;2022-11-15T00:45:56;34.02;30.67;40.66;;
66454;Laerm;56832;52.514;4.662;2022-11-15T00:46:06;32.23;30.33;34.99;;
66454;Laerm;56832;52.514;4.662;2022-11-15T00:46:18;33.43;30.21;42.53;;
66454;Laerm;56832;52.514;4.662;2022-11-15T00:46:28;33.87;31.29;41.07;;
66454;Laerm;56832;52.514;4.662;2022-11-15T00:46:38;33.35;31.66;38.05;;
66454;Laerm;56832;52.514;4.662;2022-11-15T00:46:48;34.26;32.17;36.48;;
66454;Laerm;56832;52.514;4.662;2022-11-15T00:46:58;35.53;32.02;43.21;;
66454;Laerm;56832;52.514;4.662;2022-11-15T00:47:09;34.35;31.76;36.70;;
66454;Laerm;56832;52.514;4.662;2022-11-15T00:47:19;34.35;31.09;36.91;;
66454;Laerm;56832;52.514;4.662;2022-11-15T00:47:29;36.45;31.79;42.20;;
66454;Laerm;56832;52.514;4.662;2022-11-15T00:47:40;38.68;33.97;45.85;;
66454;Laerm;56832;52.514;4.662;2022-11-15T00:47:50;33.69;31.29;35.78;;
66454;Laerm;56832;52.514;4.662;2022-11-15T00:48:00;32.96;30.57;35.80;;
66454;Laerm;56832;52.514;4.662;2022-11-15T00:48:10;34.20;30.83;41.59;;
66454;Laerm;56832;52.514;4.662;2022-11-15T00:48:20;34.44;31.23;42.98;;
66454;Laerm;56832;52.514;4.662;2022-11-15T00:48:31;33.88;31.25;36.07;;
66454;Laerm;56832;52.514;4.662;2022-11-15T00:48:41;34.59;31.74;41.60;;
66454;Laerm;56832;52.514;4.662;2022-11-15T00:48:51;34.02;30.97;40.81;;
66454;Laerm;56832;52.514;4.662;2022-11-15T00:49:02;33.97;31.49;36.33;;
66454;Laerm;56832;52.514;4.662;2022-11-15T00:49:12;33.46;30.66;41.86;;
66454;Laerm;56832;52.514;4.662;2022-11-15T00:49:22;33.22;30.20;40.02;;
66454;Laerm;56832;52.514;4.662;2022-11-15T00:49:32;32.91;30.53;35.58;;
66454;Laerm;56832;52.514;4.662;2022-11-15T00:49:42;32.94;30.82;35.12;;
66454;Laerm;56832;52.514;4.662;2022-11-15T00:49:52;35.11;31.14;42.34;;
66454;Laerm;56832;52.514;4.662;2022-11-15T00:50:03;33.06;31.06;36.99;;
66454;Laerm;56832;52.514;4.662;2022-11-15T00:50:13;33.13;31.17;35.85;;
66454;Laerm;56832;52.514;4.662;2022-11-15T00:50:24;33.98;31.60;36.61;;
66454;Laerm;56832;52.514;4.662;2022-11-15T00:50:34;33.40;31.38;35.65;;
66454;Laerm;56832;52.514;4.662;2022-11-15T00:50:44;33.68;31.07;36.67;;
66454;Laerm;56832;52.514;4.662;2022-11-15T00:50:54;34.24;31.77;36.54;;
66454;Laerm;56832;52.514;4.662;2022-11-15T00:51:04;37.97;32.63;44.74;;
66454;Laerm;56832;52.514;4.662;2022-11-15T00:51:15;36.46;33.84;39.06;;
66454;Laerm;56832;52.514;4.662;2022-11-15T00:51:25;34.05;31.93;36.17;;
66454;Laerm;56832;52.514;4.662;2022-11-15T00:51:35;35.87;32.72;38.57;;
66454;Laerm;56832;52.514;4.662;2022-11-15T00:51:45;35.85;31.01;42.10;;
66454;Laerm;56832;52.514;4.662;2022-11-15T00:51:55;34.24;31.53;40.57;;
66454;Laerm;56832;52.514;4.662;2022-11-15T00:52:06;33.39;30.70;36.72;;
66454;Laerm;56832;52.514;4.662;2022-11-15T00:52:16;33.69;31.11;36.61;;
66454;Laerm;56832;52.514;4.662;2022-11-15T00:52:26;32.69;30.73;35.57;;
66454;Laerm;56832;52.514;4.662;2022-11-15T00:52:36;35.10;30.85;41.91;;
66454;Laerm;56832;52.514;4.662;2022-11-15T00:52:46;33.06;31.08;35.44;;
66454;Laerm;56832;52.514;4.662;2022-11-15T00:52:56;33.09;31.53;35.63;;
66454;Laerm;56832;52.514;4.662;2022-11-15T00:53:07;32.61;30.90;35.06;;
66454;Laerm;56832;52.514;4.662;2022-11-15T00:53:17;33.98;30.37;41.88;;
66454;Laerm;56832;52.514;4.662;2022-11-15T00:53:27;33.62;30.92;42.02;;
66454;Laerm;56832;52.514;4.662;2022-11-15T00:53:37;32.78;30.28;35.50;;
66454;Laerm;56832;52.514;4.662;2022-11-15T00:53:48;33.50;31.05;35.99;;
66454;Laerm;56832;52.514;4.662;2022-11-15T00:53:58;34.71;31.04;43.41;;
66454;Laerm;56832;52.514;4.662;2022-11-15T00:54:08;33.85;31.21;35.60;;
66454;Laerm;56832;52.514;4.662;2022-11-15T00:54:18;35.82;32.53;41.35;;
66454;Laerm;56832;52.514;4.662;2022-11-15T00:54:28;39.36;34.44;43.96;;
66454;Laerm;56832;52.514;4.662;2022-11-15T00:54:39;37.37;33.25;42.67;;
66454;Laerm;56832;52.514;4.662;2022-11-15T00:54:49;39.65;34.82;45.61;;
66454;Laerm;56832;52.514;4.662;2022-11-15T00:54:59;60.25;36.34;68.47;;
66454;Laerm;56832;52.514;4.662;2022-11-15T00:55:18;57.76;30.10;68.21;;
66454;Laerm;56832;52.514;4.662;2022-11-15T00:55:29;34.27;30.18;42.28;;
66454;Laerm;56832;52.514;4.662;2022-11-15T00:55:39;34.69;30.95;42.17;;
66454;Laerm;56832;52.514;4.662;2022-11-15T00:55:49;58.45;33.19;67.45;;
66454;Laerm;56832;52.514;4.662;2022-11-15T00:55:59;57.65;33.84;65.30;;
66454;Laerm;56832;52.514;4.662;2022-11-15T00:56:10;36.90;33.48;41.53;;
66454;Laerm;56832;52.514;4.662;2022-11-15T00:56:20;37.80;31.93;43.69;;
66454;Laerm;56832;52.514;4.662;2022-11-15T00:56:30;36.27;31.25;42.01;;
66454;Laerm;56832;52.514;4.662;2022-11-15T00:56:40;37.32;34.53;41.60;;
66454;Laerm;56832;52.514;4.662;2022-11-15T00:56:50;34.80;31.63;39.11;;
66454;Laerm;56832;52.514;4.662;2022-11-15T00:57:01;32.96;31.31;35.17;;
66454;Laerm;56832;52.514;4.662;2022-11-15T00:57:11;33.38;31.19;39.58;;
66454;Laerm;56832;52.514;4.662;2022-11-15T00:57:21;32.23;30.29;34.72;;
66454;Laerm;56832;52.514;4.662;2022-11-15T00:57:31;32.88;31.02;35.58;;
66454;Laerm;56832;52.514;4.662;2022-11-15T00:57:41;33.14;31.47;35.72;;
66454;Laerm;56832;52.514;4.662;2022-11-15T00:57:52;33.18;31.20;36.40;;
66454;Laerm;56832;52.514;4.662;2022-11-15T00:58:02;31.99;29.41;38.69;;
66454;Laerm;56832;52.514;4.662;2022-11-15T00:58:12;31.55;30.08;33.46;;
66454;Laerm;56832;52.514;4.662;2022-11-15T00:58:22;30.99;29.55;32.60;;
66454;Laerm;56832;52.514;4.662;2022-11-15T00:58:32;31.27;29.99;32.92;;
66454;Laerm;56832;52.514;4.662;2022-11-15T00:58:43;31.34;30.01;34.09;;
66454;Laerm;56832;52.514;4.662;2022-11-15T00:58:53;31.15;29.59;33.44;;
66454;Laerm;56832;52.514;4.662;2022-11-15T00:59:03;31.48;29.42;34.19;;